Terminal Aerodrome Forecast
Issued by NWS

Home | Current Version | Previous Version | Text Only | Print | Product List | Glossary On
Versions: 1 2 3 4 5 6 7 8 9 10 11 12 13 14
000
FTUS45 KRIW 280522
TAFCPR
TAF
KCPR 280522Z 2806/2906 03007KT P6SM VCSH SCT035 BKN060
     FM281100 04008KT 5SM -RA SCT017 BKN028
     FM281700 02010G17KT 6SM -RA SCT013 BKN023
     FM290100 02008KT P6SM VCSH SCT023 BKN040=

USA.gov is the U.S. government's official web portal to all federal, state and local government web resources and services.